Terminal Aerodrome Forecast
Issued by NWS

Home | Current Version | Previous Version | Text Only | Print | Product List | Glossary On
Versions: 1 2 3 4 5 6 7 8 9 10 11 12 13 14 15 16 17 18 19 20 21 22 23 24 25 26 27 28 29 30 31 32 33 34 35 36
000
FTUS45 KGJT 271742
TAFEGE
TAF
KEGE 271742Z 2718/2818 24008G15KT P6SM -SHRA VCTS SCT050CB OVC070
     FM271900 23008KT P6SM VCTS FEW050CB BKN070
      TEMPO 2800/2802 -TSRA BKN050CB
     FM280200 14005KT P6SM VCSH SCT050 OVC070=

USA.gov is the U.S. government's official web portal to all federal, state and local government web resources and services.